This is the latest recevied weather packets stored in our database for station/object R2AJV-13. If no packets are shown the sender has not sent any weather packets the latest 10 day(s).
| Time | Temp. | Humidity | Pressure | Rain* | Wind** | Luminosity | Snow |
|---|---|---|---|---|---|---|---|
| 1788618994 | 15° C | 90% | 980.2 hPa | 0 mm | - | - | - |
| 1788618053 | 14.44° C | 94% | 980 hPa | 0 mm | - | - | - |
| 1788617750 | 14.44° C | 94% | 980 hPa | 1.78 mm | - | - | - |
| 1788615930 | 14.44° C | 98% | 979.2 hPa | 1.78 mm | - | - | - |
| 1788615019 | 14.44° C | 99% | 978.9 hPa | 1.78 mm | - | - | - |
| 1788614175 | 14.44° C | 98% | 978.7 hPa | 1.78 mm | - | - | - |
| 1788613231 | 15° C | 94% | 978.1 hPa | 0 mm | - | - | - |
| 1788612326 | 16.11° C | 89% | 977.7 hPa | 0 mm | - | - | - |
| 1788611476 | 16.67° C | 88% | 977.6 hPa | 0 mm | - | - | - |
| 1788610565 | 17.22° C | 88% | 977.2 hPa | 0 mm | - | - | - |
| 1788608743 | 15° C | 97% | 976.4 hPa | 0 mm | - | - | - |
| 1788607839 | 15.56° C | 99% | 975.2 hPa | 0 mm | - | - | - |
| 1788606928 | 15.56° C | 99% | 974.3 hPa | 0.25 mm | - | - | - |
| 1788606017 | 15° C | 99% | 973.8 hPa | 0.51 mm | - | - | - |
| 1788605168 | 15° C | 99% | 973.4 hPa | 1.78 mm | - | - | - |
| 1788604262 | 14.44° C | 99% | 973.2 hPa | 2.29 mm | - | - | - |
| 1788603351 | 14.44° C | 99% | 973.1 hPa | 2.29 mm | - | - | - |
| 1788602441 | 14.44° C | 99% | 973.1 hPa | 2.29 mm | - | - | - |
| 1788601530 | 14.44° C | 99% | 973.2 hPa | 1.52 mm | - | - | - |
| 1788600620 | 13.89° C | 99% | 973.4 hPa | 1.02 mm | - | - | - |
| 1788599774 | 13.89° C | 99% | 973.8 hPa | 0.51 mm | - | - | - |
| 1788598832 | 13.89° C | 99% | 974.2 hPa | 0.51 mm | - | - | - |
| 1788597926 | 13.89° C | 99% | 974.5 hPa | 1.52 mm | - | - | - |
| 1788597016 | 13.33° C | 99% | 975.1 hPa | 2.79 mm | - | - | - |
| 1788596166 | 13.33° C | 99% | 975.4 hPa | 5.08 mm | - | - | - |
* Rain latest hour (hover to see other rain measurements)
** Current wind speed in m/s (hover to see current wind gust speed)